sensor_id;sensor_type;location;lat;lon;timestamp;P1;durP1;ratioP1;P2;durP2;ratioP2
19107;SDS011;9686;48.832;9.126;2023-08-17T00:00:12;14.33;;;12.93;;
19107;SDS011;9686;48.832;9.126;2023-08-17T00:02:42;13.97;;;12.60;;
19107;SDS011;9686;48.832;9.126;2023-08-17T00:05:07;14.83;;;13.37;;
19107;SDS011;9686;48.832;9.126;2023-08-17T00:07:34;15.13;;;13.03;;
19107;SDS011;9686;48.832;9.126;2023-08-17T00:09:59;14.60;;;12.73;;
19107;SDS011;9686;48.832;9.126;2023-08-17T00:12:25;13.80;;;12.10;;
19107;SDS011;9686;48.832;9.126;2023-08-17T00:14:50;13.47;;;12.07;;
19107;SDS011;9686;48.832;9.126;2023-08-17T00:17:16;15.13;;;12.40;;
19107;SDS011;9686;48.832;9.126;2023-08-17T00:19:41;14.07;;;12.27;;
19107;SDS011;9686;48.832;9.126;2023-08-17T00:22:06;13.43;;;12.23;;
19107;SDS011;9686;48.832;9.126;2023-08-17T00:24:32;13.50;;;12.07;;
19107;SDS011;9686;48.832;9.126;2023-08-17T00:26:57;13.10;;;11.87;;
19107;SDS011;9686;48.832;9.126;2023-08-17T00:29:22;12.80;;;11.70;;
19107;SDS011;9686;48.832;9.126;2023-08-17T00:31:48;14.00;;;12.53;;
19107;SDS011;9686;48.832;9.126;2023-08-17T00:34:13;14.03;;;12.43;;
19107;SDS011;9686;48.832;9.126;2023-08-17T00:36:38;12.70;;;11.50;;
19107;SDS011;9686;48.832;9.126;2023-08-17T00:39:04;13.53;;;11.97;;
19107;SDS011;9686;48.832;9.126;2023-08-17T00:41:29;15.97;;;11.77;;
19107;SDS011;9686;48.832;9.126;2023-08-17T00:43:55;13.70;;;12.40;;
19107;SDS011;9686;48.832;9.126;2023-08-17T00:46:21;14.27;;;12.77;;
19107;SDS011;9686;48.832;9.126;2023-08-17T00:48:48;13.23;;;11.93;;
19107;SDS011;9686;48.832;9.126;2023-08-17T00:51:13;14.30;;;12.83;;
19107;SDS011;9686;48.832;9.126;2023-08-17T00:53:40;14.10;;;12.63;;
19107;SDS011;9686;48.832;9.126;2023-08-17T00:56:05;12.27;;;11.13;;
19107;SDS011;9686;48.832;9.126;2023-08-17T00:58:31;12.43;;;11.40;;
19107;SDS011;9686;48.832;9.126;2023-08-17T01:00:57;14.20;;;11.27;;
19107;SDS011;9686;48.832;9.126;2023-08-17T01:03:23;11.43;;;10.30;;
19107;SDS011;9686;48.832;9.126;2023-08-17T01:05:49;12.83;;;11.47;;
19107;SDS011;9686;48.832;9.126;2023-08-17T01:08:14;15.73;;;11.17;;
19107;SDS011;9686;48.832;9.126;2023-08-17T01:10:47;12.00;;;10.90;;
19107;SDS011;9686;48.832;9.126;2023-08-17T01:13:38;12.60;;;10.70;;
19107;SDS011;9686;48.832;9.126;2023-08-17T01:16:09;11.83;;;10.70;;
19107;SDS011;9686;48.832;9.126;2023-08-17T01:18:39;11.87;;;10.57;;
19107;SDS011;9686;48.832;9.126;2023-08-17T01:21:06;11.97;;;10.73;;
19107;SDS011;9686;48.832;9.126;2023-08-17T01:23:33;12.50;;;11.40;;
19107;SDS011;9686;48.832;9.126;2023-08-17T01:25:58;12.03;;;10.83;;
19107;SDS011;9686;48.832;9.126;2023-08-17T01:28:24;11.80;;;10.33;;
19107;SDS011;9686;48.832;9.126;2023-08-17T01:30:51;11.50;;;9.70;;
19107;SDS011;9686;48.832;9.126;2023-08-17T01:33:33;10.10;;;9.07;;
19107;SDS011;9686;48.832;9.126;2023-08-17T01:36:19;10.47;;;9.47;;
19107;SDS011;9686;48.832;9.126;2023-08-17T01:38:50;11.77;;;9.53;;
19107;SDS011;9686;48.832;9.126;2023-08-17T01:41:17;17.50;;;10.30;;
19107;SDS011;9686;48.832;9.126;2023-08-17T01:43:43;10.60;;;9.50;;
19107;SDS011;9686;48.832;9.126;2023-08-17T01:46:16;10.43;;;9.43;;
19107;SDS011;9686;48.832;9.126;2023-08-17T01:48:42;10.53;;;9.50;;
19107;SDS011;9686;48.832;9.126;2023-08-17T01:51:13;10.20;;;9.13;;
19107;SDS011;9686;48.832;9.126;2023-08-17T01:53:44;10.60;;;9.47;;
19107;SDS011;9686;48.832;9.126;2023-08-17T01:56:10;11.30;;;8.93;;
19107;SDS011;9686;48.832;9.126;2023-08-17T01:58:35;12.67;;;8.90;;
19107;SDS011;9686;48.832;9.126;2023-08-17T02:01:00;10.33;;;9.10;;
19107;SDS011;9686;48.832;9.126;2023-08-17T02:03:26;10.17;;;9.13;;
19107;SDS011;9686;48.832;9.126;2023-08-17T02:05:55;9.33;;;8.43;;
19107;SDS011;9686;48.832;9.126;2023-08-17T02:08:20;9.90;;;8.90;;
19107;SDS011;9686;48.832;9.126;2023-08-17T02:10:46;9.27;;;8.10;;
19107;SDS011;9686;48.832;9.126;2023-08-17T02:13:11;9.70;;;8.80;;
19107;SDS011;9686;48.832;9.126;2023-08-17T02:15:38;10.13;;;8.30;;
19107;SDS011;9686;48.832;9.126;2023-08-17T02:18:04;8.83;;;7.90;;
19107;SDS011;9686;48.832;9.126;2023-08-17T02:20:30;9.77;;;8.00;;
19107;SDS011;9686;48.832;9.126;2023-08-17T02:22:55;10.20;;;9.00;;
19107;SDS011;9686;48.832;9.126;2023-08-17T02:25:21;9.40;;;8.03;;
19107;SDS011;9686;48.832;9.126;2023-08-17T02:27:46;10.50;;;8.67;;
19107;SDS011;9686;48.832;9.126;2023-08-17T02:30:11;9.23;;;8.27;;
19107;SDS011;9686;48.832;9.126;2023-08-17T02:32:37;12.53;;;9.30;;
19107;SDS011;9686;48.832;9.126;2023-08-17T02:35:03;8.40;;;7.60;;
19107;SDS011;9686;48.832;9.126;2023-08-17T02:37:28;9.40;;;8.57;;
19107;SDS011;9686;48.832;9.126;2023-08-17T02:39:53;9.20;;;8.23;;
19107;SDS011;9686;48.832;9.126;2023-08-17T02:42:19;8.60;;;7.90;;
19107;SDS011;9686;48.832;9.126;2023-08-17T02:44:44;9.27;;;8.37;;
19107;SDS011;9686;48.832;9.126;2023-08-17T02:47:09;9.30;;;8.30;;
19107;SDS011;9686;48.832;9.126;2023-08-17T02:49:35;9.07;;;7.93;;
19107;SDS011;9686;48.832;9.126;2023-08-17T02:52:00;9.10;;;7.90;;
19107;SDS011;9686;48.832;9.126;2023-08-17T02:54:25;8.23;;;7.53;;
19107;SDS011;9686;48.832;9.126;2023-08-17T02:56:51;8.67;;;7.80;;
19107;SDS011;9686;48.832;9.126;2023-08-17T02:59:16;10.33;;;8.40;;
19107;SDS011;9686;48.832;9.126;2023-08-17T03:01:41;8.43;;;7.73;;
19107;SDS011;9686;48.832;9.126;2023-08-17T03:04:09;9.47;;;8.00;;
19107;SDS011;9686;48.832;9.126;2023-08-17T03:06:35;9.13;;;8.23;;
19107;SDS011;9686;48.832;9.126;2023-08-17T03:09:00;8.63;;;7.83;;
19107;SDS011;9686;48.832;9.126;2023-08-17T03:11:25;8.67;;;7.87;;
19107;SDS011;9686;48.832;9.126;2023-08-17T03:13:50;10.70;;;9.77;;
19107;SDS011;9686;48.832;9.126;2023-08-17T03:16:16;10.23;;;9.20;;
19107;SDS011;9686;48.832;9.126;2023-08-17T03:18:41;10.00;;;8.77;;
19107;SDS011;9686;48.832;9.126;2023-08-17T03:21:07;12.10;;;9.47;;
19107;SDS011;9686;48.832;9.126;2023-08-17T03:23:33;10.87;;;9.37;;
19107;SDS011;9686;48.832;9.126;2023-08-17T03:25:58;11.97;;;10.50;;
19107;SDS011;9686;48.832;9.126;2023-08-17T03:28:23;12.83;;;11.10;;
19107;SDS011;9686;48.832;9.126;2023-08-17T03:30:54;10.77;;;9.77;;
19107;SDS011;9686;48.832;9.126;2023-08-17T03:33:20;12.00;;;10.70;;
19107;SDS011;9686;48.832;9.126;2023-08-17T03:35:45;17.53;;;13.50;;
19107;SDS011;9686;48.832;9.126;2023-08-17T03:38:10;18.67;;;14.10;;
19107;SDS011;9686;48.832;9.126;2023-08-17T03:40:36;18.07;;;14.40;;
19107;SDS011;9686;48.832;9.126;2023-08-17T03:43:01;18.83;;;14.63;;
19107;SDS011;9686;48.832;9.126;2023-08-17T03:45:26;17.23;;;14.00;;
19107;SDS011;9686;48.832;9.126;2023-08-17T03:47:51;17.73;;;14.57;;
19107;SDS011;9686;48.832;9.126;2023-08-17T03:50:17;15.83;;;14.23;;
19107;SDS011;9686;48.832;9.126;2023-08-17T03:52:42;17.93;;;14.70;;
19107;SDS011;9686;48.832;9.126;2023-08-17T03:55:07;17.87;;;14.00;;
19107;SDS011;9686;48.832;9.126;2023-08-17T03:57:33;15.90;;;14.23;;
19107;SDS011;9686;48.832;9.126;2023-08-17T03:59:58;20.03;;;14.93;;
19107;SDS011;9686;48.832;9.126;2023-08-17T04:02:23;18.33;;;14.20;;
19107;SDS011;9686;48.832;9.126;2023-08-17T04:04:49;19.07;;;15.37;;
19107;SDS011;9686;48.832;9.126;2023-08-17T04:07:20;20.37;;;16.07;;
19107;SDS011;9686;48.832;9.126;2023-08-17T04:09:46;21.90;;;16.10;;
19107;SDS011;9686;48.832;9.126;2023-08-17T04:12:11;18.30;;;15.03;;
19107;SDS011;9686;48.832;9.126;2023-08-17T04:14:36;18.57;;;15.10;;
19107;SDS011;9686;48.832;9.126;2023-08-17T04:17:02;16.37;;;14.60;;
19107;SDS011;9686;48.832;9.126;2023-08-17T04:19:27;15.90;;;14.20;;
19107;SDS011;9686;48.832;9.126;2023-08-17T04:21:52;16.13;;;14.40;;
19107;SDS011;9686;48.832;9.126;2023-08-17T04:24:18;16.20;;;14.50;;
19107;SDS011;9686;48.832;9.126;2023-08-17T04:26:43;19.43;;;14.23;;
19107;SDS011;9686;48.832;9.126;2023-08-17T04:29:08;16.90;;;14.73;;
19107;SDS011;9686;48.832;9.126;2023-08-17T04:31:33;19.73;;;13.90;;
19107;SDS011;9686;48.832;9.126;2023-08-17T04:33:59;17.67;;;13.90;;
19107;SDS011;9686;48.832;9.126;2023-08-17T04:36:24;19.27;;;15.10;;
19107;SDS011;9686;48.832;9.126;2023-08-17T04:38:49;19.17;;;15.73;;
19107;SDS011;9686;48.832;9.126;2023-08-17T04:41:15;18.90;;;14.97;;
19107;SDS011;9686;48.832;9.126;2023-08-17T04:43:41;21.73;;;15.83;;
19107;SDS011;9686;48.832;9.126;2023-08-17T04:46:08;20.53;;;15.00;;
19107;SDS011;9686;48.832;9.126;2023-08-17T04:48:33;22.67;;;16.63;;
19107;SDS011;9686;48.832;9.126;2023-08-17T04:50:58;20.27;;;16.00;;
19107;SDS011;9686;48.832;9.126;2023-08-17T04:53:23;21.30;;;16.10;;
19107;SDS011;9686;48.832;9.126;2023-08-17T04:55:49;20.70;;;17.13;;
19107;SDS011;9686;48.832;9.126;2023-08-17T04:58:14;21.83;;;17.70;;
19107;SDS011;9686;48.832;9.126;2023-08-17T05:00:39;21.47;;;16.37;;
19107;SDS011;9686;48.832;9.126;2023-08-17T05:03:05;21.17;;;16.43;;
19107;SDS011;9686;48.832;9.126;2023-08-17T05:05:30;17.30;;;14.57;;
19107;SDS011;9686;48.832;9.126;2023-08-17T05:07:55;18.50;;;15.67;;
19107;SDS011;9686;48.832;9.126;2023-08-17T05:10:20;20.03;;;15.20;;
19107;SDS011;9686;48.832;9.126;2023-08-17T05:12:46;21.13;;;16.30;;
19107;SDS011;9686;48.832;9.126;2023-08-17T05:15:11;19.97;;;15.67;;
19107;SDS011;9686;48.832;9.126;2023-08-17T05:17:37;20.27;;;16.30;;
19107;SDS011;9686;48.832;9.126;2023-08-17T05:20:03;20.13;;;15.63;;
19107;SDS011;9686;48.832;9.126;2023-08-17T05:22:29;19.93;;;16.53;;
19107;SDS011;9686;48.832;9.126;2023-08-17T05:24:55;22.20;;;16.83;;
19107;SDS011;9686;48.832;9.126;2023-08-17T05:27:20;21.23;;;15.83;;
19107;SDS011;9686;48.832;9.126;2023-08-17T05:29:45;20.50;;;15.10;;
19107;SDS011;9686;48.832;9.126;2023-08-17T05:32:11;19.90;;;15.23;;
19107;SDS011;9686;48.832;9.126;2023-08-17T05:34:36;18.53;;;15.60;;
19107;SDS011;9686;48.832;9.126;2023-08-17T05:37:01;20.30;;;16.70;;
19107;SDS011;9686;48.832;9.126;2023-08-17T05:39:28;18.63;;;15.47;;
19107;SDS011;9686;48.832;9.126;2023-08-17T05:41:53;20.03;;;15.53;;
19107;SDS011;9686;48.832;9.126;2023-08-17T05:44:18;18.03;;;15.33;;
19107;SDS011;9686;48.832;9.126;2023-08-17T05:46:44;18.10;;;16.17;;
19107;SDS011;9686;48.832;9.126;2023-08-17T05:49:09;17.50;;;14.90;;
19107;SDS011;9686;48.832;9.126;2023-08-17T05:51:34;17.30;;;14.63;;
19107;SDS011;9686;48.832;9.126;2023-08-17T05:54:00;18.03;;;13.90;;
19107;SDS011;9686;48.832;9.126;2023-08-17T05:56:25;16.80;;;14.30;;
19107;SDS011;9686;48.832;9.126;2023-08-17T05:58:50;15.63;;;13.20;;
19107;SDS011;9686;48.832;9.126;2023-08-17T06:01:15;14.77;;;13.27;;
19107;SDS011;9686;48.832;9.126;2023-08-17T06:03:41;13.97;;;12.47;;
19107;SDS011;9686;48.832;9.126;2023-08-17T06:06:06;14.80;;;12.67;;
19107;SDS011;9686;48.832;9.126;2023-08-17T06:08:32;15.00;;;12.93;;
19107;SDS011;9686;48.832;9.126;2023-08-17T06:10:57;14.17;;;12.77;;
19107;SDS011;9686;48.832;9.126;2023-08-17T06:13:23;15.87;;;13.97;;
19107;SDS011;9686;48.832;9.126;2023-08-17T06:15:48;17.27;;;13.93;;
19107;SDS011;9686;48.832;9.126;2023-08-17T06:18:13;16.33;;;14.50;;
19107;SDS011;9686;48.832;9.126;2023-08-17T06:20:39;17.10;;;14.13;;
19107;SDS011;9686;48.832;9.126;2023-08-17T06:23:04;18.83;;;14.63;;
19107;SDS011;9686;48.832;9.126;2023-08-17T06:25:29;15.93;;;13.83;;
19107;SDS011;9686;48.832;9.126;2023-08-17T06:27:55;15.67;;;13.87;;
19107;SDS011;9686;48.832;9.126;2023-08-17T06:30:20;16.03;;;14.33;;
19107;SDS011;9686;48.832;9.126;2023-08-17T06:32:46;16.67;;;14.87;;
19107;SDS011;9686;48.832;9.126;2023-08-17T06:35:11;18.13;;;16.10;;
19107;SDS011;9686;48.832;9.126;2023-08-17T06:37:36;17.30;;;15.50;;
19107;SDS011;9686;48.832;9.126;2023-08-17T06:40:03;16.87;;;15.07;;
19107;SDS011;9686;48.832;9.126;2023-08-17T06:42:30;19.20;;;15.27;;
19107;SDS011;9686;48.832;9.126;2023-08-17T06:44:55;16.00;;;14.30;;
19107;SDS011;9686;48.832;9.126;2023-08-17T06:47:20;15.83;;;14.17;;
19107;SDS011;9686;48.832;9.126;2023-08-17T06:49:46;17.63;;;15.57;;
19107;SDS011;9686;48.832;9.126;2023-08-17T06:52:11;18.87;;;14.23;;
19107;SDS011;9686;48.832;9.126;2023-08-17T06:54:36;16.87;;;14.30;;
19107;SDS011;9686;48.832;9.126;2023-08-17T06:57:02;15.70;;;14.00;;
19107;SDS011;9686;48.832;9.126;2023-08-17T06:59:27;19.13;;;15.00;;
19107;SDS011;9686;48.832;9.126;2023-08-17T07:01:52;16.10;;;14.10;;
19107;SDS011;9686;48.832;9.126;2023-08-17T07:04:17;16.10;;;14.23;;
19107;SDS011;9686;48.832;9.126;2023-08-17T07:06:43;18.27;;;14.47;;
19107;SDS011;9686;48.832;9.126;2023-08-17T07:09:08;15.13;;;13.63;;
19107;SDS011;9686;48.832;9.126;2023-08-17T07:11:36;16.53;;;13.90;;
19107;SDS011;9686;48.832;9.126;2023-08-17T07:14:02;18.93;;;14.57;;
19107;SDS011;9686;48.832;9.126;2023-08-17T07:16:27;15.53;;;13.80;;
19107;SDS011;9686;48.832;9.126;2023-08-17T07:18:52;15.43;;;13.70;;
19107;SDS011;9686;48.832;9.126;2023-08-17T07:21:18;16.07;;;13.87;;
19107;SDS011;9686;48.832;9.126;2023-08-17T07:23:43;15.90;;;14.23;;
19107;SDS011;9686;48.832;9.126;2023-08-17T07:26:10;15.47;;;13.20;;
19107;SDS011;9686;48.832;9.126;2023-08-17T07:28:35;16.33;;;13.30;;
19107;SDS011;9686;48.832;9.126;2023-08-17T07:31:00;16.97;;;15.03;;
19107;SDS011;9686;48.832;9.126;2023-08-17T07:33:26;16.03;;;14.33;;
19107;SDS011;9686;48.832;9.126;2023-08-17T07:35:51;17.93;;;14.73;;
19107;SDS011;9686;48.832;9.126;2023-08-17T07:38:18;17.73;;;14.10;;
19107;SDS011;9686;48.832;9.126;2023-08-17T07:40:43;15.63;;;13.67;;
19107;SDS011;9686;48.832;9.126;2023-08-17T07:43:08;17.93;;;14.20;;
19107;SDS011;9686;48.832;9.126;2023-08-17T07:45:33;14.70;;;12.97;;
19107;SDS011;9686;48.832;9.126;2023-08-17T07:47:59;16.57;;;13.10;;
19107;SDS011;9686;48.832;9.126;2023-08-17T07:50:24;14.33;;;12.93;;
19107;SDS011;9686;48.832;9.126;2023-08-17T07:52:49;17.27;;;13.57;;
19107;SDS011;9686;48.832;9.126;2023-08-17T07:55:15;14.47;;;12.97;;
19107;SDS011;9686;48.832;9.126;2023-08-17T07:57:40;17.70;;;13.70;;
19107;SDS011;9686;48.832;9.126;2023-08-17T08:00:05;14.17;;;12.80;;
19107;SDS011;9686;48.832;9.126;2023-08-17T08:02:31;13.77;;;12.37;;
19107;SDS011;9686;48.832;9.126;2023-08-17T08:04:56;14.70;;;13.13;;
19107;SDS011;9686;48.832;9.126;2023-08-17T08:07:21;16.77;;;12.80;;
19107;SDS011;9686;48.832;9.126;2023-08-17T08:09:47;14.23;;;12.73;;
19107;SDS011;9686;48.832;9.126;2023-08-17T08:12:12;13.87;;;12.47;;
19107;SDS011;9686;48.832;9.126;2023-08-17T08:14:37;14.17;;;12.80;;
19107;SDS011;9686;48.832;9.126;2023-08-17T08:17:03;14.50;;;12.53;;
19107;SDS011;9686;48.832;9.126;2023-08-17T08:19:28;14.27;;;12.37;;
19107;SDS011;9686;48.832;9.126;2023-08-17T08:21:53;13.43;;;11.93;;
19107;SDS011;9686;48.832;9.126;2023-08-17T08:24:18;12.33;;;11.10;;
19107;SDS011;9686;48.832;9.126;2023-08-17T08:26:44;15.00;;;13.67;;
19107;SDS011;9686;48.832;9.126;2023-08-17T08:29:09;15.23;;;13.70;;
19107;SDS011;9686;48.832;9.126;2023-08-17T08:31:34;13.70;;;12.30;;
19107;SDS011;9686;48.832;9.126;2023-08-17T08:34:00;16.70;;;13.23;;
19107;SDS011;9686;48.832;9.126;2023-08-17T08:36:25;15.97;;;12.30;;
19107;SDS011;9686;48.832;9.126;2023-08-17T08:38:50;14.40;;;12.57;;
19107;SDS011;9686;48.832;9.126;2023-08-17T08:41:16;13.50;;;12.10;;
19107;SDS011;9686;48.832;9.126;2023-08-17T08:43:42;11.80;;;10.60;;
19107;SDS011;9686;48.832;9.126;2023-08-17T08:46:07;13.30;;;11.37;;
19107;SDS011;9686;48.832;9.126;2023-08-17T08:48:34;14.20;;;12.57;;
19107;SDS011;9686;48.832;9.126;2023-08-17T08:51:00;14.00;;;12.63;;
19107;SDS011;9686;48.832;9.126;2023-08-17T08:53:28;16.57;;;12.70;;
19107;SDS011;9686;48.832;9.126;2023-08-17T08:56:00;13.60;;;12.17;;
19107;SDS011;9686;48.832;9.126;2023-08-17T08:58:26;13.00;;;11.60;;
19107;SDS011;9686;48.832;9.126;2023-08-17T09:00:54;13.50;;;11.40;;
19107;SDS011;9686;48.832;9.126;2023-08-17T09:03:20;13.97;;;11.87;;
19107;SDS011;9686;48.832;9.126;2023-08-17T09:05:49;12.53;;;11.23;;
19107;SDS011;9686;48.832;9.126;2023-08-17T09:08:15;13.40;;;12.20;;
19107;SDS011;9686;48.832;9.126;2023-08-17T09:10:45;12.43;;;11.13;;
19107;SDS011;9686;48.832;9.126;2023-08-17T09:13:11;15.73;;;12.57;;
19107;SDS011;9686;48.832;9.126;2023-08-17T09:15:37;13.03;;;11.60;;
19107;SDS011;9686;48.832;9.126;2023-08-17T09:18:03;13.18;;;11.85;;
19107;SDS011;9686;48.832;9.126;2023-08-17T09:23:04;11.87;;;10.67;;
19107;SDS011;9686;48.832;9.126;2023-08-17T09:25:30;12.83;;;11.13;;
19107;SDS011;9686;48.832;9.126;2023-08-17T09:27:56;11.73;;;10.50;;
19107;SDS011;9686;48.832;9.126;2023-08-17T09:30:22;12.97;;;11.13;;
19107;SDS011;9686;48.832;9.126;2023-08-17T09:32:47;11.03;;;9.73;;
19107;SDS011;9686;48.832;9.126;2023-08-17T09:35:14;11.77;;;10.60;;
19107;SDS011;9686;48.832;9.126;2023-08-17T09:37:40;11.90;;;10.70;;
19107;SDS011;9686;48.832;9.126;2023-08-17T09:40:05;11.75;;;10.55;;
19107;SDS011;9686;48.832;9.126;2023-08-17T09:42:34;10.63;;;9.63;;
19107;SDS011;9686;48.832;9.126;2023-08-17T09:44:59;10.43;;;8.73;;
19107;SDS011;9686;48.832;9.126;2023-08-17T09:47:26;10.73;;;9.63;;
19107;SDS011;9686;48.832;9.126;2023-08-17T09:49:52;11.52;;;9.07;;
19107;SDS011;9686;48.832;9.126;2023-08-17T09:52:19;11.80;;;10.70;;
19107;SDS011;9686;48.832;9.126;2023-08-17T09:54:48;10.77;;;9.68;;
19107;SDS011;9686;48.832;9.126;2023-08-17T09:57:14;9.68;;;8.82;;
19107;SDS011;9686;48.832;9.126;2023-08-17T09:59:41;13.15;;;10.77;;
19107;SDS011;9686;48.832;9.126;2023-08-17T10:02:39;12.63;;;11.43;;
19107;SDS011;9686;48.832;9.126;2023-08-17T10:04:58;11.27;;;10.18;;
19107;SDS011;9686;48.832;9.126;2023-08-17T10:07:29;10.80;;;9.73;;
19107;SDS011;9686;48.832;9.126;2023-08-17T10:10:00;10.07;;;9.05;;
19107;SDS011;9686;48.832;9.126;2023-08-17T10:12:30;11.45;;;10.25;;
19107;SDS011;9686;48.832;9.126;2023-08-17T10:15:06;11.10;;;9.68;;
19107;SDS011;9686;48.832;9.126;2023-08-17T10:17:35;9.20;;;8.30;;
19107;SDS011;9686;48.832;9.126;2023-08-17T10:20:06;10.73;;;9.73;;
19107;SDS011;9686;48.832;9.126;2023-08-17T10:25:09;11.10;;;8.23;;
19107;SDS011;9686;48.832;9.126;2023-08-17T10:27:38;13.10;;;8.32;;
19107;SDS011;9686;48.832;9.126;2023-08-17T10:30:05;13.88;;;10.85;;
19107;SDS011;9686;48.832;9.126;2023-08-17T10:32:33;11.48;;;10.38;;
19107;SDS011;9686;48.832;9.126;2023-08-17T10:34:58;10.43;;;9.32;;
19107;SDS011;9686;48.832;9.126;2023-08-17T10:37:24;10.30;;;9.25;;
19107;SDS011;9686;48.832;9.126;2023-08-17T10:39:50;9.98;;;8.98;;
19107;SDS011;9686;48.832;9.126;2023-08-17T10:42:29;9.82;;;8.93;;
19107;SDS011;9686;48.832;9.126;2023-08-17T10:44:56;12.45;;;10.85;;
19107;SDS011;9686;48.832;9.126;2023-08-17T10:47:23;11.93;;;10.63;;
19107;SDS011;9686;48.832;9.126;2023-08-17T10:49:56;11.65;;;10.45;;
19107;SDS011;9686;48.832;9.126;2023-08-17T10:52:32;10.57;;;9.45;;
19107;SDS011;9686;48.832;9.126;2023-08-17T10:54:59;10.40;;;9.38;;
19107;SDS011;9686;48.832;9.126;2023-08-17T11:02:33;10.57;;;9.48;;
19107;SDS011;9686;48.832;9.126;2023-08-17T11:04:58;11.52;;;10.35;;
19107;SDS011;9686;48.832;9.126;2023-08-17T11:07:25;12.40;;;9.88;;
19107;SDS011;9686;48.832;9.126;2023-08-17T11:09:53;11.30;;;10.02;;
19107;SDS011;9686;48.832;9.126;2023-08-17T11:12:25;13.02;;;9.82;;
19107;SDS011;9686;48.832;9.126;2023-08-17T11:14:51;10.93;;;9.88;;
19107;SDS011;9686;48.832;9.126;2023-08-17T11:17:16;11.05;;;9.98;;
19107;SDS011;9686;48.832;9.126;2023-08-17T11:19:41;8.73;;;7.90;;
19107;SDS011;9686;48.832;9.126;2023-08-17T11:22:07;13.25;;;11.95;;
19107;SDS011;9686;48.832;9.126;2023-08-17T11:24:32;10.88;;;9.80;;
19107;SDS011;9686;48.832;9.126;2023-08-17T11:26:58;10.77;;;9.10;;
19107;SDS011;9686;48.832;9.126;2023-08-17T11:29:23;12.18;;;10.95;;
19107;SDS011;9686;48.832;9.126;2023-08-17T11:31:50;9.50;;;8.48;;
19107;SDS011;9686;48.832;9.126;2023-08-17T11:34:15;11.30;;;9.48;;
19107;SDS011;9686;48.832;9.126;2023-08-17T11:36:40;8.98;;;8.07;;
19107;SDS011;9686;48.832;9.126;2023-08-17T11:39:06;9.57;;;8.57;;
19107;SDS011;9686;48.832;9.126;2023-08-17T11:41:32;10.50;;;9.55;;
19107;SDS011;9686;48.832;9.126;2023-08-17T11:43:57;12.05;;;8.57;;
19107;SDS011;9686;48.832;9.126;2023-08-17T11:46:23;12.05;;;9.68;;
19107;SDS011;9686;48.832;9.126;2023-08-17T11:48:50;10.75;;;9.02;;
19107;SDS011;9686;48.832;9.126;2023-08-17T11:51:27;13.40;;;8.75;;
19107;SDS011;9686;48.832;9.126;2023-08-17T11:53:54;12.68;;;11.38;;
19107;SDS011;9686;48.832;9.126;2023-08-17T11:56:23;15.38;;;13.40;;
19107;SDS011;9686;48.832;9.126;2023-08-17T11:58:49;13.77;;;12.48;;
19107;SDS011;9686;48.832;9.126;2023-08-17T12:01:14;11.85;;;10.70;;
19107;SDS011;9686;48.832;9.126;2023-08-17T12:03:41;11.10;;;10.02;;
19107;SDS011;9686;48.832;9.126;2023-08-17T12:06:07;11.18;;;10.07;;
19107;SDS011;9686;48.832;9.126;2023-08-17T12:08:32;13.77;;;12.15;;
19107;SDS011;9686;48.832;9.126;2023-08-17T12:10:58;10.15;;;9.15;;
19107;SDS011;9686;48.832;9.126;2023-08-17T12:13:30;9.93;;;8.30;;
19107;SDS011;9686;48.832;9.126;2023-08-17T12:15:57;9.52;;;8.73;;
19107;SDS011;9686;48.832;9.126;2023-08-17T12:18:24;8.70;;;7.78;;
19107;SDS011;9686;48.832;9.126;2023-08-17T12:20:53;8.30;;;7.43;;
19107;SDS011;9686;48.832;9.126;2023-08-17T12:23:19;10.10;;;7.00;;
19107;SDS011;9686;48.832;9.126;2023-08-17T12:25:44;7.30;;;6.38;;
19107;SDS011;9686;48.832;9.126;2023-08-17T12:28:13;10.75;;;7.47;;
19107;SDS011;9686;48.832;9.126;2023-08-17T12:30:38;9.80;;;6.82;;
19107;SDS011;9686;48.832;9.126;2023-08-17T12:33:03;8.05;;;6.47;;
19107;SDS011;9686;48.832;9.126;2023-08-17T12:35:31;9.60;;;6.68;;
19107;SDS011;9686;48.832;9.126;2023-08-17T12:37:57;8.63;;;6.60;;
19107;SDS011;9686;48.832;9.126;2023-08-17T12:40:22;8.35;;;6.10;;
19107;SDS011;9686;48.832;9.126;2023-08-17T12:42:48;7.93;;;6.10;;
19107;SDS011;9686;48.832;9.126;2023-08-17T12:45:14;7.75;;;6.95;;
19107;SDS011;9686;48.832;9.126;2023-08-17T12:47:40;6.68;;;6.07;;
19107;SDS011;9686;48.832;9.126;2023-08-17T12:50:05;7.25;;;5.95;;
19107;SDS011;9686;48.832;9.126;2023-08-17T12:52:31;7.00;;;6.15;;
19107;SDS011;9686;48.832;9.126;2023-08-17T12:54:56;7.13;;;5.70;;
19107;SDS011;9686;48.832;9.126;2023-08-17T12:57:22;6.05;;;5.13;;
19107;SDS011;9686;48.832;9.126;2023-08-17T12:59:47;6.53;;;5.25;;
19107;SDS011;9686;48.832;9.126;2023-08-17T13:02:12;6.78;;;5.20;;
19107;SDS011;9686;48.832;9.126;2023-08-17T13:04:38;5.85;;;5.28;;
19107;SDS011;9686;48.832;9.126;2023-08-17T13:07:04;6.68;;;5.05;;
19107;SDS011;9686;48.832;9.126;2023-08-17T13:09:29;5.63;;;5.13;;
19107;SDS011;9686;48.832;9.126;2023-08-17T13:11:54;6.38;;;5.68;;
19107;SDS011;9686;48.832;9.126;2023-08-17T13:14:20;5.97;;;5.38;;
19107;SDS011;9686;48.832;9.126;2023-08-17T13:16:47;8.15;;;5.70;;
19107;SDS011;9686;48.832;9.126;2023-08-17T13:19:13;6.18;;;5.45;;
19107;SDS011;9686;48.832;9.126;2023-08-17T13:21:38;7.40;;;6.47;;
19107;SDS011;9686;48.832;9.126;2023-08-17T13:24:03;7.72;;;6.93;;
19107;SDS011;9686;48.832;9.126;2023-08-17T13:26:29;7.80;;;7.10;;
19107;SDS011;9686;48.832;9.126;2023-08-17T13:28:55;9.10;;;7.57;;
19107;SDS011;9686;48.832;9.126;2023-08-17T13:31:21;9.32;;;7.72;;
19107;SDS011;9686;48.832;9.126;2023-08-17T13:33:46;8.77;;;7.87;;
19107;SDS011;9686;48.832;9.126;2023-08-17T13:36:11;8.60;;;7.80;;
19107;SDS011;9686;48.832;9.126;2023-08-17T13:38:36;10.00;;;7.80;;
19107;SDS011;9686;48.832;9.126;2023-08-17T13:41:03;9.20;;;8.30;;
19107;SDS011;9686;48.832;9.126;2023-08-17T13:43:29;9.57;;;8.67;;
19107;SDS011;9686;48.832;9.126;2023-08-17T13:45:54;9.80;;;8.73;;
19107;SDS011;9686;48.832;9.126;2023-08-17T13:48:19;10.30;;;9.40;;
19107;SDS011;9686;48.832;9.126;2023-08-17T13:50:44;10.60;;;9.43;;
19107;SDS011;9686;48.832;9.126;2023-08-17T13:53:10;11.80;;;10.60;;
19107;SDS011;9686;48.832;9.126;2023-08-17T13:55:35;10.97;;;10.00;;
19107;SDS011;9686;48.832;9.126;2023-08-17T13:58:00;11.83;;;10.50;;
19107;SDS011;9686;48.832;9.126;2023-08-17T14:00:26;10.97;;;10.00;;
19107;SDS011;9686;48.832;9.126;2023-08-17T14:02:52;10.77;;;9.77;;
19107;SDS011;9686;48.832;9.126;2023-08-17T14:05:17;8.77;;;7.97;;
19107;SDS011;9686;48.832;9.126;2023-08-17T14:07:43;12.33;;;9.03;;
19107;SDS011;9686;48.832;9.126;2023-08-17T14:10:08;12.27;;;10.50;;
19107;SDS011;9686;48.832;9.126;2023-08-17T14:12:34;9.67;;;8.77;;
19107;SDS011;9686;48.832;9.126;2023-08-17T14:14:59;11.13;;;8.57;;
19107;SDS011;9686;48.832;9.126;2023-08-17T14:17:25;8.63;;;7.73;;
19107;SDS011;9686;48.832;9.126;2023-08-17T14:19:50;10.47;;;8.53;;
19107;SDS011;9686;48.832;9.126;2023-08-17T14:22:15;9.77;;;8.40;;
19107;SDS011;9686;48.832;9.126;2023-08-17T14:24:40;10.90;;;8.63;;
19107;SDS011;9686;48.832;9.126;2023-08-17T14:27:06;11.03;;;10.00;;
19107;SDS011;9686;48.832;9.126;2023-08-17T14:29:31;9.20;;;8.30;;
19107;SDS011;9686;48.832;9.126;2023-08-17T14:31:56;9.57;;;8.57;;
19107;SDS011;9686;48.832;9.126;2023-08-17T14:34:22;10.27;;;9.37;;
19107;SDS011;9686;48.832;9.126;2023-08-17T14:36:47;9.40;;;8.53;;
19107;SDS011;9686;48.832;9.126;2023-08-17T14:39:12;9.57;;;8.67;;
19107;SDS011;9686;48.832;9.126;2023-08-17T14:41:38;9.40;;;8.60;;
19107;SDS011;9686;48.832;9.126;2023-08-17T14:44:03;8.70;;;8.00;;
19107;SDS011;9686;48.832;9.126;2023-08-17T14:46:29;9.77;;;8.90;;